CHR2 weather

High River Hospital Helipad
High River, Alberta, Canada

Public forecast

Using degrees Celsius for public forecast. Weather courtesy of forecast.io.

Closest aviation weather report (METAR) to High River Hospital Helipad

Closest report is Calgary International Airport, 32.7 nm (60.6 km) N. Retrieved 2020/01/29 10:00 UTC (36 minutes ago):

CYYC 291000Z 22003KT 15SM SKC M07/M11 A3000 RMK SLP209

Closest aviation forecast (TAF) to High River Hospital Helipad

Forecast is more than 6 hours old.

Closest forecast is Calgary International Airport, 32.7 nm (60.6 km) N. Retrieved 2020-01-29 03:41 UTC (7 hours ago):

TAF CYYC 290238Z 2903/2924 30006KT P6SM FEW200 FM291200 26005KT P6SM SKC BECMG 2913/2915 22010KT FM292100 22010KT P6SM BKN080 BKN240 RMK NXT FCST BY 290600Z